Time;durP1;ratioP1;P1;durP2;ratioP2;P2;SDS_P1;SDS_P2;PMS_P1;PMS_P2;Temp;Humidity;BMP_temperature;BMP_pressure;BME280_temperature;BME280_humidity;BME280_pressure;Samples;Min_cycle;Max_cycle;Signal;HPM_P1;HPM_P2
2021/12/28 00:00:54;;;;;;;26.73;19.75;;;;;;;;;;5105391;27;20369;-79
2021/12/28 00:03:21;;;;;;;29.65;22.05;;;;;;;;;;5091371;27;20343;-79
2021/12/28 00:05:47;;;;;;;29.05;20.52;;;;;;;;;;5108930;27;20050;-79
2021/12/28 00:08:13;;;;;;;25.35;19.73;;;;;;;;;;5079827;27;20685;-79
2021/12/28 00:10:40;;;;;;;28.17;22.42;;;;;;;;;;5088008;28;20044;-79
2021/12/28 00:13:06;;;;;;;27.45;19.77;;;;;;;;;;5086746;27;20050;-79
2021/12/28 00:15:46;;;;;;;28.02;20.48;;;;;;;;;;5107895;27;20093;-79
2021/12/28 00:18:12;;;;;;;26.42;20.05;;;;;;;;;;5108582;27;20526;-79
2021/12/28 00:20:39;;;;;;;27.52;19.40;;;;;;;;;;5109540;27;20039;-79
2021/12/28 00:23:08;;;;;;;26.70;19.23;;;;;;;;;;5107186;27;20513;-76
2021/12/28 00:25:34;;;;;;;24.55;20.35;;;;;;;;;;5089405;27;20035;-75
2021/12/28 00:28:00;;;;;;;26.40;19.35;;;;;;;;;;5106273;27;20117;-75
2021/12/28 00:30:29;;;;;;;23.98;18.52;;;;;;;;;;5090995;27;20091;-75
2021/12/28 00:32:56;;;;;;;27.42;21.00;;;;;;;;;;5109667;27;20031;-75
2021/12/28 00:35:27;;;;;;;29.27;22.98;;;;;;;;;;5087635;27;20054;-75
2021/12/28 00:37:55;;;;;;;29.75;21.35;;;;;;;;;;5093898;27;20374;-76
2021/12/28 00:40:22;;;;;;;29.95;21.38;;;;;;;;;;5101745;27;20035;-76
2021/12/28 00:42:48;;;;;;;31.60;22.75;;;;;;;;;;5090910;27;20135;-76
2021/12/28 00:45:14;;;;;;;29.98;22.25;;;;;;;;;;5106005;27;20051;-76
2021/12/28 00:47:41;;;;;;;31.63;22.27;;;;;;;;;;5076375;27;20168;-76
2021/12/28 00:50:09;;;;;;;33.40;23.35;;;;;;;;;;5085421;28;20051;-79
2021/12/28 00:52:35;;;;;;;35.75;26.83;;;;;;;;;;5104962;27;20031;-79
2021/12/28 00:55:02;;;;;;;29.08;22.05;;;;;;;;;;5101678;27;20043;-79
2021/12/28 00:57:28;;;;;;;32.50;22.30;;;;;;;;;;5110012;27;20053;-79
2021/12/28 00:59:54;;;;;;;34.20;26.45;;;;;;;;;;5108573;27;20039;-79
2021/12/28 01:02:20;;;;;;;43.28;27.90;;;;;;;;;;5105014;27;20173;-79
2021/12/28 01:04:46;;;;;;;52.85;31.40;;;;;;;;;;5103929;27;20431;-79
2021/12/28 01:07:13;;;;;;;39.83;28.42;;;;;;;;;;5057607;27;20046;-79
2021/12/28 01:09:41;;;;;;;38.60;26.95;;;;;;;;;;5110783;27;20074;-79
2021/12/28 01:12:07;;;;;;;38.20;25.90;;;;;;;;;;5108277;27;20065;-79
2021/12/28 01:14:33;;;;;;;47.08;30.65;;;;;;;;;;5108393;27;20426;-79
2021/12/28 01:16:59;;;;;;;41.35;29.30;;;;;;;;;;5093822;27;21115;-80
2021/12/28 01:19:26;;;;;;;46.08;32.63;;;;;;;;;;5090230;27;20092;-78
2021/12/28 01:21:52;;;;;;;39.67;27.83;;;;;;;;;;5114654;27;20093;-79
2021/12/28 01:24:18;;;;;;;48.08;30.13;;;;;;;;;;5108679;27;20475;-79
2021/12/28 01:26:45;;;;;;;44.03;28.50;;;;;;;;;;5107387;27;20043;-78
2021/12/28 01:29:11;;;;;;;41.08;26.52;;;;;;;;;;5106235;27;20088;-79
2021/12/28 01:31:37;;;;;;;43.97;30.55;;;;;;;;;;5089787;27;20151;-78
2021/12/28 01:34:04;;;;;;;54.67;35.47;;;;;;;;;;5106306;27;20039;-79
2021/12/28 01:36:30;;;;;;;50.42;32.15;;;;;;;;;;5103116;27;20039;-79
2021/12/28 01:38:56;;;;;;;48.83;32.63;;;;;;;;;;5104494;27;20047;-79
2021/12/28 01:41:23;;;;;;;51.05;30.25;;;;;;;;;;5108464;27;20051;-79
2021/12/28 01:43:55;;;;;;;46.22;26.15;;;;;;;;;;5088412;27;20469;-79
2021/12/28 01:46:21;;;;;;;40.42;27.95;;;;;;;;;;5086799;27;20165;-79
2021/12/28 01:48:47;;;;;;;53.08;28.85;;;;;;;;;;5088819;27;20095;-79
2021/12/28 01:51:15;;;;;;;60.22;33.97;;;;;;;;;;5085067;27;20035;-79
2021/12/28 01:53:42;;;;;;;53.83;32.05;;;;;;;;;;5106095;27;20051;-79
2021/12/28 01:56:09;;;;;;;50.53;29.85;;;;;;;;;;5105012;27;20138;-75
2021/12/28 01:58:35;;;;;;;53.35;32.60;;;;;;;;;;5087038;27;20136;-75
2021/12/28 02:01:02;;;;;;;52.03;31.77;;;;;;;;;;5104789;27;20043;-74
2021/12/28 02:03:31;;;;;;;43.70;29.33;;;;;;;;;;5086388;27;20039;-74
2021/12/28 02:05:57;;;;;;;48.08;30.08;;;;;;;;;;5103073;27;20043;-75
2021/12/28 02:08:24;;;;;;;53.72;31.35;;;;;;;;;;5107260;27;20328;-75
2021/12/28 02:10:51;;;;;;;53.05;32.65;;;;;;;;;;5065738;27;20047;-75
2021/12/28 02:13:18;;;;;;;70.80;37.47;;;;;;;;;;5087465;27;20465;-75
2021/12/28 02:15:44;;;;;;;46.90;29.70;;;;;;;;;;5100974;27;20366;-75
2021/12/28 02:18:12;;;;;;;57.10;31.92;;;;;;;;;;5075049;27;20043;-75
2021/12/28 02:20:39;;;;;;;46.25;30.67;;;;;;;;;;5117667;27;20049;-74
2021/12/28 02:23:05;;;;;;;51.70;30.90;;;;;;;;;;5109097;27;20038;-75
2021/12/28 02:25:32;;;;;;;58.10;32.70;;;;;;;;;;5109812;27;20477;-75
2021/12/28 02:28:01;;;;;;;68.38;35.88;;;;;;;;;;5092335;28;20052;-75
2021/12/28 02:30:27;;;;;;;48.78;31.67;;;;;;;;;;5093184;27;20391;-75
2021/12/28 02:32:54;;;;;;;46.17;29.88;;;;;;;;;;5111520;27;20184;-78
2021/12/28 02:35:21;;;;;;;61.72;36.85;;;;;;;;;;5101412;28;20118;-79
2021/12/28 02:37:49;;;;;;;65.60;37.95;;;;;;;;;;5107705;27;20039;-78
2021/12/28 02:40:16;;;;;;;53.63;31.95;;;;;;;;;;5113078;27;20046;-79
2021/12/28 02:42:43;;;;;;;69.53;39.03;;;;;;;;;;5108978;27;20074;-79
2021/12/28 02:45:12;;;;;;;55.10;32.80;;;;;;;;;;5091095;27;20032;-79
2021/12/28 02:47:39;;;;;;;52.92;31.73;;;;;;;;;;5124933;27;20035;-78
2021/12/28 02:50:07;;;;;;;54.58;33.80;;;;;;;;;;5089818;28;20039;-78
2021/12/28 02:52:39;;;;;;;55.97;32.22;;;;;;;;;;5103367;27;20035;-75
2021/12/28 02:55:07;;;;;;;60.90;32.50;;;;;;;;;;5109895;27;20050;-75
2021/12/28 02:57:33;;;;;;;77.65;41.03;;;;;;;;;;5090105;27;20050;-75
2021/12/28 02:59:59;;;;;;;61.45;33.88;;;;;;;;;;5071985;27;20478;-75
2021/12/28 03:02:25;;;;;;;67.28;37.97;;;;;;;;;;5110522;27;20046;-75
2021/12/28 03:04:52;;;;;;;54.65;31.30;;;;;;;;;;5090400;27;20343;-75
2021/12/28 03:07:18;;;;;;;58.33;32.95;;;;;;;;;;5107967;27;20043;-75
2021/12/28 03:09:44;;;;;;;53.15;31.15;;;;;;;;;;5109999;27;20078;-75
2021/12/28 03:12:11;;;;;;;55.60;32.85;;;;;;;;;;5091518;27;20031;-75
2021/12/28 03:14:37;;;;;;;72.93;38.50;;;;;;;;;;5114240;28;20050;-75
2021/12/28 03:17:04;;;;;;;70.35;35.75;;;;;;;;;;5105388;28;20051;-75
2021/12/28 03:19:30;;;;;;;65.75;36.38;;;;;;;;;;5105606;27;20056;-75
2021/12/28 03:22:00;;;;;;;54.70;31.55;;;;;;;;;;5106309;28;20110;-75
2021/12/28 03:24:26;;;;;;;69.97;35.72;;;;;;;;;;5111724;28;20031;-75
2021/12/28 03:26:52;;;;;;;57.20;31.25;;;;;;;;;;5091133;27;20047;-75
2021/12/28 03:29:19;;;;;;;65.03;32.58;;;;;;;;;;5107479;28;20035;-75
2021/12/28 03:31:45;;;;;;;55.30;31.02;;;;;;;;;;5106167;28;20047;-75
2021/12/28 03:34:11;;;;;;;62.33;35.63;;;;;;;;;;5085207;28;20040;-75
2021/12/28 03:36:37;;;;;;;58.67;31.42;;;;;;;;;;5089503;27;20530;-75
2021/12/28 03:39:04;;;;;;;61.55;33.80;;;;;;;;;;5105666;28;20035;-75
2021/12/28 03:41:31;;;;;;;61.42;30.92;;;;;;;;;;5086613;28;20448;-75
2021/12/28 03:43:57;;;;;;;49.97;29.05;;;;;;;;;;5102003;27;20162;-75
2021/12/28 03:46:24;;;;;;;53.65;29.08;;;;;;;;;;5109255;28;20507;-75
2021/12/28 03:48:51;;;;;;;50.95;29.77;;;;;;;;;;5083602;28;20065;-75
2021/12/28 03:51:17;;;;;;;56.90;32.78;;;;;;;;;;5102370;27;20062;-75
2021/12/28 03:53:44;;;;;;;49.90;26.27;;;;;;;;;;5088591;28;20050;-79
2021/12/28 03:56:11;;;;;;;39.45;24.25;;;;;;;;;;5111540;28;20474;-79
2021/12/28 03:58:38;;;;;;;46.38;26.20;;;;;;;;;;5082695;28;20059;-79
2021/12/28 04:01:04;;;;;;;39.72;25.05;;;;;;;;;;5114227;27;20042;-79
2021/12/28 04:03:31;;;;;;;49.83;26.33;;;;;;;;;;5116206;28;20047;-79
2021/12/28 04:05:59;;;;;;;48.60;24.92;;;;;;;;;;5112736;28;20478;-79
2021/12/28 04:08:27;;;;;;;54.17;28.83;;;;;;;;;;5104585;28;20050;-79
2021/12/28 04:11:12;;;;;;;44.90;26.13;;;;;;;;;;5110782;27;20055;-79
2021/12/28 04:13:39;;;;;;;42.65;25.15;;;;;;;;;;5102609;28;20457;-79
2021/12/28 04:16:05;;;;;;;40.92;25.65;;;;;;;;;;5111862;27;20051;-79
2021/12/28 04:18:32;;;;;;;41.47;24.67;;;;;;;;;;5120237;28;20046;-79
2021/12/28 04:20:58;;;;;;;48.67;27.10;;;;;;;;;;5112768;28;20043;-79
2021/12/28 04:23:24;;;;;;;48.45;26.33;;;;;;;;;;5106434;27;20043;-79
2021/12/28 04:25:51;;;;;;;46.95;27.60;;;;;;;;;;5113684;27;20540;-79
2021/12/28 04:28:17;;;;;;;48.08;26.15;;;;;;;;;;5103059;28;20574;-79
2021/12/28 04:30:43;;;;;;;41.47;27.02;;;;;;;;;;5096575;27;20041;-79
2021/12/28 04:33:09;;;;;;;46.08;26.05;;;;;;;;;;5114996;27;20684;-79
2021/12/28 04:35:35;;;;;;;57.28;29.90;;;;;;;;;;5109827;27;20119;-79
2021/12/28 04:38:02;;;;;;;46.95;26.88;;;;;;;;;;5109701;27;20045;-79
2021/12/28 04:40:29;;;;;;;55.00;27.80;;;;;;;;;;5103553;27;20042;-79
2021/12/28 04:42:55;;;;;;;64.25;30.30;;;;;;;;;;5094476;27;20140;-76
2021/12/28 04:45:22;;;;;;;53.40;26.73;;;;;;;;;;5110237;27;20063;-76
2021/12/28 04:47:48;;;;;;;67.75;32.33;;;;;;;;;;5093970;27;20058;-80
2021/12/28 04:50:14;;;;;;;48.55;24.75;;;;;;;;;;5076221;27;20127;-76
2021/12/28 04:52:40;;;;;;;53.75;25.15;;;;;;;;;;5091390;27;20062;-79
2021/12/28 04:55:10;;;;;;;60.95;33.22;;;;;;;;;;5116846;27;20043;-80
2021/12/28 04:57:36;;;;;;;54.25;28.52;;;;;;;;;;5083470;27;20031;-75
2021/12/28 05:00:05;;;;;;;57.47;28.98;;;;;;;;;;5102632;27;20495;-75
2021/12/28 05:02:31;;;;;;;48.53;26.25;;;;;;;;;;5110372;27;20043;-75
2021/12/28 05:04:57;;;;;;;59.75;26.63;;;;;;;;;;5092235;27;20405;-75
2021/12/28 05:07:23;;;;;;;44.00;24.45;;;;;;;;;;5109223;27;20034;-75
2021/12/28 05:09:50;;;;;;;47.20;25.98;;;;;;;;;;5093382;27;20093;-75
2021/12/28 05:12:16;;;;;;;38.05;23.08;;;;;;;;;;5110822;27;20042;-75
2021/12/28 05:14:42;;;;;;;47.55;25.52;;;;;;;;;;5077266;27;20122;-75
2021/12/28 05:17:09;;;;;;;45.88;25.20;;;;;;;;;;5108707;27;20368;-75
2021/12/28 05:19:35;;;;;;;51.15;28.38;;;;;;;;;;5105874;27;20159;-79
2021/12/28 05:22:01;;;;;;;45.72;25.70;;;;;;;;;;5097020;27;20030;-75
2021/12/28 05:24:27;;;;;;;44.30;24.02;;;;;;;;;;5092347;27;20062;-75
2021/12/28 05:26:53;;;;;;;43.83;24.85;;;;;;;;;;5092206;27;20046;-75
2021/12/28 05:29:20;;;;;;;41.80;24.40;;;;;;;;;;5092806;27;20704;-74
2021/12/28 05:31:46;;;;;;;46.85;22.60;;;;;;;;;;5087909;27;20050;-75
2021/12/28 05:34:12;;;;;;;36.03;23.00;;;;;;;;;;5107832;27;20047;-75
2021/12/28 05:36:38;;;;;;;38.28;22.60;;;;;;;;;;5105004;27;20412;-74
2021/12/28 05:39:05;;;;;;;37.63;22.60;;;;;;;;;;5105382;27;20038;-79
2021/12/28 05:41:31;;;;;;;36.72;20.63;;;;;;;;;;5088653;27;20102;-79
2021/12/28 05:43:57;;;;;;;47.08;25.05;;;;;;;;;;5109552;27;20047;-79
2021/12/28 05:46:23;;;;;;;40.83;24.17;;;;;;;;;;5074197;27;20051;-79
2021/12/28 05:48:49;;;;;;;44.70;22.65;;;;;;;;;;5088626;27;20039;-79
2021/12/28 05:51:16;;;;;;;42.20;22.58;;;;;;;;;;5094980;28;20646;-79
2021/12/28 05:53:42;;;;;;;33.85;19.85;;;;;;;;;;5077567;27;20368;-79
2021/12/28 05:56:08;;;;;;;40.33;22.75;;;;;;;;;;5106618;27;20046;-79
2021/12/28 05:58:34;;;;;;;33.90;21.02;;;;;;;;;;5095296;27;20138;-79
2021/12/28 06:01:01;;;;;;;34.42;20.33;;;;;;;;;;5107209;27;20042;-79
2021/12/28 06:03:27;;;;;;;34.97;23.13;;;;;;;;;;5097546;27;20042;-79
2021/12/28 06:05:53;;;;;;;31.55;20.23;;;;;;;;;;5093608;27;20073;-79
2021/12/28 06:08:19;;;;;;;37.05;21.98;;;;;;;;;;5111462;27;20083;-79
2021/12/28 06:10:45;;;;;;;37.72;20.95;;;;;;;;;;5100589;27;20047;-79
2021/12/28 06:13:12;;;;;;;39.70;20.80;;;;;;;;;;5114184;27;20046;-79
2021/12/28 06:15:38;;;;;;;32.15;20.40;;;;;;;;;;5112674;27;20697;-79
2021/12/28 06:18:04;;;;;;;40.72;23.63;;;;;;;;;;5113028;27;20043;-79
2021/12/28 06:20:30;;;;;;;42.65;24.52;;;;;;;;;;5107499;27;20047;-79
2021/12/28 06:22:56;;;;;;;34.35;21.42;;;;;;;;;;5102246;27;20051;-80
2021/12/28 06:25:23;;;;;;;34.83;22.75;;;;;;;;;;5100419;27;20039;-79
2021/12/28 06:27:49;;;;;;;37.95;22.52;;;;;;;;;;5103375;27;20105;-79
2021/12/28 06:30:16;;;;;;;35.97;22.13;;;;;;;;;;5104020;27;20106;-79
2021/12/28 06:32:42;;;;;;;35.60;22.60;;;;;;;;;;5106482;27;20043;-79
2021/12/28 06:35:09;;;;;;;39.72;22.98;;;;;;;;;;5074685;27;20046;-79
2021/12/28 06:37:36;;;;;;;38.33;22.95;;;;;;;;;;5087951;27;20050;-79
2021/12/28 06:40:03;;;;;;;32.25;21.30;;;;;;;;;;5108992;27;20043;-79
2021/12/28 06:42:29;;;;;;;39.83;25.80;;;;;;;;;;5106839;27;20038;-75
2021/12/28 06:44:55;;;;;;;46.05;23.38;;;;;;;;;;5102972;27;20091;-75
2021/12/28 06:47:22;;;;;;;42.47;25.13;;;;;;;;;;5077457;27;20114;-78
2021/12/28 06:49:48;;;;;;;31.77;23.45;;;;;;;;;;5106513;27;20050;-78
2021/12/28 06:52:14;;;;;;;36.33;24.08;;;;;;;;;;5107463;27;20032;-79
2021/12/28 06:54:41;;;;;;;39.83;23.20;;;;;;;;;;5091898;28;20028;-79
2021/12/28 06:57:08;;;;;;;40.45;24.42;;;;;;;;;;5092907;27;20038;-79
2021/12/28 06:59:37;;;;;;;41.40;24.90;;;;;;;;;;5106991;27;20042;-79
2021/12/28 07:02:04;;;;;;;36.80;23.58;;;;;;;;;;5110693;27;20039;-79
2021/12/28 07:04:30;;;;;;;36.55;20.58;;;;;;;;;;5112326;27;20122;-79
2021/12/28 07:06:58;;;;;;;35.22;21.27;;;;;;;;;;5113686;27;20198;-79
2021/12/28 07:09:24;;;;;;;34.15;21.77;;;;;;;;;;5112160;27;20490;-79
2021/12/28 07:11:50;;;;;;;29.33;20.73;;;;;;;;;;5099085;28;20035;-79
2021/12/28 07:14:16;;;;;;;31.25;18.98;;;;;;;;;;5109086;27;20066;-79
2021/12/28 07:16:42;;;;;;;36.38;18.73;;;;;;;;;;5108564;27;20142;-79
2021/12/28 07:19:10;;;;;;;39.25;20.33;;;;;;;;;;5106926;28;20118;-79
2021/12/28 07:21:37;;;;;;;32.95;19.67;;;;;;;;;;5096997;28;20043;-79
2021/12/28 07:24:03;;;;;;;34.25;20.00;;;;;;;;;;5106074;28;20491;-79
2021/12/28 07:26:30;;;;;;;38.67;19.15;;;;;;;;;;5116465;28;20036;-79
2021/12/28 07:28:56;;;;;;;29.00;17.25;;;;;;;;;;5111047;28;20060;-79
2021/12/28 07:31:22;;;;;;;29.60;17.65;;;;;;;;;;5109817;28;20066;-79
2021/12/28 07:33:48;;;;;;;26.23;17.45;;;;;;;;;;5113432;27;20046;-79
2021/12/28 07:36:15;;;;;;;27.60;17.40;;;;;;;;;;5107240;28;20043;-79
2021/12/28 07:38:41;;;;;;;26.40;16.45;;;;;;;;;;5086153;28;20088;-79
2021/12/28 07:41:07;;;;;;;26.23;14.48;;;;;;;;;;5093023;28;20044;-78
2021/12/28 07:43:34;;;;;;;27.55;15.18;;;;;;;;;;5108196;27;20034;-78
2021/12/28 07:46:00;;;;;;;21.52;14.18;;;;;;;;;;5099041;28;20095;-78
2021/12/28 07:48:26;;;;;;;26.95;14.30;;;;;;;;;;5097319;28;20036;-78
2021/12/28 07:50:52;;;;;;;22.55;14.38;;;;;;;;;;5089768;27;20054;-78
2021/12/28 07:53:19;;;;;;;19.60;12.45;;;;;;;;;;5101390;28;20055;-78
2021/12/28 07:55:45;;;;;;;25.17;14.82;;;;;;;;;;5079802;28;20354;-78
2021/12/28 07:58:11;;;;;;;26.23;15.35;;;;;;;;;;5098622;27;20039;-78
2021/12/28 08:00:37;;;;;;;22.52;14.32;;;;;;;;;;5094812;27;20083;-78
2021/12/28 08:03:04;;;;;;;22.08;12.68;;;;;;;;;;5113052;27;20047;-74
2021/12/28 08:05:31;;;;;;;31.08;14.38;;;;;;;;;;5106083;27;20081;-74
2021/12/28 08:07:58;;;;;;;29.02;15.02;;;;;;;;;;5111530;27;20140;-74
2021/12/28 08:10:24;;;;;;;26.88;13.40;;;;;;;;;;5086376;27;20039;-78
2021/12/28 08:12:52;;;;;;;23.25;13.38;;;;;;;;;;5104977;27;20086;-78
2021/12/28 08:15:18;;;;;;;27.05;12.55;;;;;;;;;;5078516;27;20039;-78
2021/12/28 08:17:45;;;;;;;17.60;11.95;;;;;;;;;;5075928;27;20130;-77
2021/12/28 08:20:12;;;;;;;20.08;11.32;;;;;;;;;;5105357;27;20558;-77
2021/12/28 08:22:39;;;;;;;27.13;12.45;;;;;;;;;;5114575;27;20125;-78
2021/12/28 08:25:06;;;;;;;20.02;11.20;;;;;;;;;;5107039;27;20072;-75
2021/12/28 08:27:32;;;;;;;27.05;11.65;;;;;;;;;;5088519;27;20106;-75
2021/12/28 08:29:58;;;;;;;22.85;11.52;;;;;;;;;;5106866;27;20049;-75
2021/12/28 08:32:25;;;;;;;21.60;11.68;;;;;;;;;;5091443;27;20136;-78
2021/12/28 08:34:51;;;;;;;21.45;11.20;;;;;;;;;;5111085;27;20040;-78
2021/12/28 08:37:17;;;;;;;14.88;10.68;;;;;;;;;;5092624;27;20039;-80
2021/12/28 08:39:43;;;;;;;25.35;11.02;;;;;;;;;;5097040;27;20035;-81
2021/12/28 08:42:10;;;;;;;21.02;10.60;;;;;;;;;;5089888;27;20053;-79
2021/12/28 08:44:36;;;;;;;17.25;10.75;;;;;;;;;;5106689;27;20502;-79
2021/12/28 08:47:02;;;;;;;25.98;11.77;;;;;;;;;;5085985;27;20043;-79
2021/12/28 08:49:29;;;;;;;22.77;10.73;;;;;;;;;;5093248;27;20039;-74
2021/12/28 08:51:56;;;;;;;30.38;12.20;;;;;;;;;;5088111;27;20048;-75
2021/12/28 08:54:22;;;;;;;24.65;11.00;;;;;;;;;;5074878;27;20047;-75
2021/12/28 08:56:50;;;;;;;20.10;11.52;;;;;;;;;;5101194;27;20589;-75
2021/12/28 08:59:17;;;;;;;22.40;11.20;;;;;;;;;;5090446;27;20043;-75
2021/12/28 09:01:43;;;;;;;32.72;12.80;;;;;;;;;;5106507;27;20767;-74
2021/12/28 09:04:09;;;;;;;21.40;10.82;;;;;;;;;;5104199;27;20039;-75
2021/12/28 09:06:35;;;;;;;21.70;11.75;;;;;;;;;;5095791;27;20394;-80
2021/12/28 09:09:01;;;;;;;25.30;12.15;;;;;;;;;;5102774;27;20607;-80
2021/12/28 09:11:28;;;;;;;24.38;10.95;;;;;;;;;;5078820;27;20040;-79
2021/12/28 09:13:54;;;;;;;17.35;10.43;;;;;;;;;;5091394;27;20032;-80
2021/12/28 09:16:20;;;;;;;22.48;12.07;;;;;;;;;;5093548;27;20043;-80
2021/12/28 09:18:46;;;;;;;25.88;11.60;;;;;;;;;;5107788;27;20397;-80
2021/12/28 09:21:12;;;;;;;21.70;12.48;;;;;;;;;;5084415;27;20119;-80
2021/12/28 09:23:39;;;;;;;20.13;11.82;;;;;;;;;;5106549;27;20068;-80
2021/12/28 09:26:06;;;;;;;20.75;11.82;;;;;;;;;;5089123;27;20670;-79
2021/12/28 09:28:32;;;;;;;25.10;13.00;;;;;;;;;;5107728;27;20036;-79
2021/12/28 09:30:59;;;;;;;22.75;12.40;;;;;;;;;;5091507;27;20039;-82
2021/12/28 09:33:25;;;;;;;24.60;12.55;;;;;;;;;;5104183;27;20542;-80
2021/12/28 09:35:52;;;;;;;25.17;11.52;;;;;;;;;;5077114;27;20437;-79
2021/12/28 09:38:19;;;;;;;21.83;12.50;;;;;;;;;;5089510;27;20089;-79
2021/12/28 09:40:46;;;;;;;23.58;11.27;;;;;;;;;;5113081;27;20039;-76
2021/12/28 09:43:13;;;;;;;24.67;13.07;;;;;;;;;;5109193;27;20052;-80
2021/12/28 09:45:40;;;;;;;23.17;13.80;;;;;;;;;;5092109;27;20587;-79
2021/12/28 09:48:07;;;;;;;25.35;13.15;;;;;;;;;;5107813;27;20073;-79
2021/12/28 09:50:34;;;;;;;17.98;12.15;;;;;;;;;;5093628;27;20074;-80
2021/12/28 09:53:01;;;;;;;24.60;13.43;;;;;;;;;;5085617;27;20110;-80
2021/12/28 09:55:27;;;;;;;23.90;13.65;;;;;;;;;;5110526;27;20047;-79
2021/12/28 09:57:53;;;;;;;20.85;13.23;;;;;;;;;;5072188;27;20047;-79
2021/12/28 10:00:21;;;;;;;24.02;14.20;;;;;;;;;;5089337;27;20077;-79
2021/12/28 10:02:47;;;;;;;19.27;12.95;;;;;;;;;;5092710;27;20399;-79
2021/12/28 10:05:17;;;;;;;26.48;14.43;;;;;;;;;;5092849;27;20058;-79
2021/12/28 10:07:53;;;;;;;25.23;16.55;;;;;;;;;;5101896;27;20047;-78
2021/12/28 10:10:19;;;;;;;26.13;14.00;;;;;;;;;;5106657;27;20043;-79
2021/12/28 10:12:49;;;;;;;20.20;14.13;;;;;;;;;;5102946;27;20039;-78
2021/12/28 10:15:18;;;;;;;22.40;14.00;;;;;;;;;;5084776;27;20070;-79
2021/12/28 10:17:46;;;;;;;24.50;14.15;;;;;;;;;;5099360;27;20043;-78
2021/12/28 10:20:19;;;;;;;26.13;15.25;;;;;;;;;;5084816;28;20119;-78
2021/12/28 10:23:05;;;;;;;19.50;13.48;;;;;;;;;;5103049;27;20035;-78
2021/12/28 10:25:35;;;;;;;20.85;13.50;;;;;;;;;;5106152;27;20054;-78
2021/12/28 10:28:03;;;;;;;20.25;13.10;;;;;;;;;;5105796;27;20441;-79
2021/12/28 10:30:35;;;;;;;18.02;13.35;;;;;;;;;;5101959;27;20085;-78
2021/12/28 10:33:12;;;;;;;23.63;14.07;;;;;;;;;;5101516;27;20067;-78
2021/12/28 10:35:51;;;;;;;18.83;12.63;;;;;;;;;;5090500;27;20130;-78
2021/12/28 10:38:25;;;;;;;16.95;11.45;;;;;;;;;;5108167;27;20075;-78
2021/12/28 10:40:54;;;;;;;22.85;12.73;;;;;;;;;;5088636;28;20139;-78
2021/12/28 10:43:25;;;;;;;17.52;11.80;;;;;;;;;;5099601;27;20047;-79
2021/12/28 10:46:01;;;;;;;20.13;11.50;;;;;;;;;;5097452;27;20066;-78
2021/12/28 10:48:31;;;;;;;17.40;12.57;;;;;;;;;;5105465;27;20031;-78
2021/12/28 10:51:02;;;;;;;15.82;12.40;;;;;;;;;;5101030;27;20221;-78
2021/12/28 10:53:38;;;;;;;15.32;11.75;;;;;;;;;;5108572;27;20122;-78
2021/12/28 10:56:08;;;;;;;19.98;11.55;;;;;;;;;;5101385;27;20395;-78
2021/12/28 10:58:41;;;;;;;23.02;11.55;;;;;;;;;;5098368;27;20047;-78
2021/12/28 11:01:27;;;;;;;18.05;10.80;;;;;;;;;;5097391;27;20040;-78
2021/12/28 11:03:55;;;;;;;16.70;11.43;;;;;;;;;;5096702;27;20057;-79
2021/12/28 11:06:29;;;;;;;16.02;10.52;;;;;;;;;;5098743;27;20134;-78
2021/12/28 11:09:19;;;;;;;14.50;11.00;;;;;;;;;;5096425;27;20138;-78
2021/12/28 11:11:45;;;;;;;14.65;10.48;;;;;;;;;;5088649;28;20053;-78
2021/12/28 11:14:15;;;;;;;13.40;9.00;;;;;;;;;;5082954;28;20476;-74
2021/12/28 11:16:42;;;;;;;13.88;9.82;;;;;;;;;;5101382;28;20553;-75
2021/12/28 11:19:09;;;;;;;13.20;10.93;;;;;;;;;;5101867;27;20050;-74
2021/12/28 11:21:39;;;;;;;13.13;8.73;;;;;;;;;;5095966;28;20051;-74
2021/12/28 11:24:10;;;;;;;22.85;10.15;;;;;;;;;;5079973;28;20496;-74
2021/12/28 11:26:41;;;;;;;10.80;8.70;;;;;;;;;;5095526;27;20126;-83
2021/12/28 11:29:15;;;;;;;11.65;8.05;;;;;;;;;;5084884;28;20115;-75
2021/12/28 11:31:44;;;;;;;12.23;7.88;;;;;;;;;;5080485;28;20108;-74
2021/12/28 11:34:13;;;;;;;8.68;7.13;;;;;;;;;;5087026;27;20027;-74
2021/12/28 11:36:41;;;;;;;10.98;7.40;;;;;;;;;;5080855;27;20388;-75
2021/12/28 11:39:10;;;;;;;9.32;7.85;;;;;;;;;;5084661;28;20040;-74
2021/12/28 11:41:36;;;;;;;11.93;7.38;;;;;;;;;;5098409;27;20112;-74
2021/12/28 11:44:03;;;;;;;9.15;8.13;;;;;;;;;;5100310;27;20125;-74
2021/12/28 11:46:29;;;;;;;8.20;7.13;;;;;;;;;;5111121;27;20489;-74
2021/12/28 11:48:56;;;;;;;8.07;6.78;;;;;;;;;;5073872;27;20038;-74
2021/12/28 11:51:22;;;;;;;9.55;6.93;;;;;;;;;;5083101;27;20047;-75
2021/12/28 11:53:49;;;;;;;10.02;7.45;;;;;;;;;;5109012;27;20083;-74
2021/12/28 11:56:18;;;;;;;11.25;8.32;;;;;;;;;;5093208;27;20044;-74
2021/12/28 11:58:55;;;;;;;12.00;8.00;;;;;;;;;;5090491;27;20055;-73
2021/12/28 12:01:48;;;;;;;10.90;8.45;;;;;;;;;;5102367;27;20046;-74
2021/12/28 12:04:26;;;;;;;10.30;7.13;;;;;;;;;;5103106;27;20054;-73
2021/12/28 12:10:19;;;;;;;9.45;7.25;;;;;;;;;;5012771;28;20092;-74
2021/12/28 12:12:53;;;;;;;8.32;7.00;;;;;;;;;;5097672;27;20087;-73
2021/12/28 12:16:08;;;;;;;;;;;;;;;;;;;;;
2021/12/28 12:23:12;;;;;;;10.52;7.45;;;;;;;;;;5031601;28;20057;-74
2021/12/28 12:26:32;;;;;;;9.85;7.05;;;;;;;;;;5016649;28;20060;-82
2021/12/28 12:29:24;;;;;;;;;;;;;;;;;;5076501;28;20535;-80
2021/12/28 12:32:24;;;;;;;8.70;6.72;;;;;;;;;;5105681;27;20060;-81
2021/12/28 12:38:06;;;;;;;11.15;7.88;;;;;;;;;;5079329;27;19960;-74
2021/12/28 12:51:18;;;;;;;9.27;6.80;;;;;;;;;;5040143;28;20104;-74
2021/12/28 13:00:07;;;;;;;10.35;6.88;;;;;;;;;;5051127;28;20736;-74
2021/12/28 13:06:15;;;;;;;8.95;7.07;;;;;;;;;;5061929;28;20052;-74
2021/12/28 13:09:20;;;;;;;6.97;5.80;;;;;;;;;;5063568;28;20078;-74
2021/12/28 13:11:59;;;;;;;10.57;7.97;;;;;;;;;;5060293;28;20334;-73
2021/12/28 13:14:34;;;;;;;11.05;6.82;;;;;;;;;;5059331;28;20542;-74
2021/12/28 13:20:59;;;;;;;7.03;6.18;;;;;;;;;;5028270;28;20036;-74
2021/12/28 13:23:30;;;;;;;8.23;6.00;;;;;;;;;;5028195;28;20546;-74
2021/12/28 13:32:52;;;;;;;8.15;6.20;;;;;;;;;;5086849;27;20145;-74
2021/12/28 13:35:32;;;;;;;9.45;6.38;;;;;;;;;;5091691;27;20051;-74
2021/12/28 13:38:12;;;;;;;10.00;6.93;;;;;;;;;;5065250;28;20402;-74
2021/12/28 13:44:02;;;;;;;9.90;7.53;;;;;;;;;;5060593;28;20577;-73
2021/12/28 13:50:17;;;;;;;13.05;7.95;;;;;;;;;;5054905;28;20052;-73
2021/12/28 13:53:59;;;;;;;9.23;6.82;;;;;;;;;;5057195;28;20185;-74
2021/12/28 13:59:22;;;;;;;13.25;7.70;;;;;;;;;;5058953;28;20190;-74
2021/12/28 14:02:00;;;;;;;10.85;7.32;;;;;;;;;;5063742;28;20495;-74
2021/12/28 14:04:48;;;;;;;;;;;;;;;;;;;;;
2021/12/28 14:07:22;;;;;;;6.90;5.63;;;;;;;;;;5062699;28;20560;-74
2021/12/28 14:10:22;;;;;;;7.25;4.65;;;;;;;;;;5041430;28;20474;-74
2021/12/28 14:16:21;;;;;;;5.60;3.67;;;;;;;;;;5033374;28;20036;-74
2021/12/28 14:18:57;;;;;;;4.70;3.45;;;;;;;;;;5048529;28;20048;-74
2021/12/28 14:21:46;;;;;;;5.15;3.45;;;;;;;;;;5072454;28;20104;-74
2021/12/28 14:24:42;;;;;;;5.57;3.85;;;;;;;;;;5059723;28;20039;-74
2021/12/28 14:27:30;;;;;;;6.38;3.88;;;;;;;;;;5101171;27;20203;-74
2021/12/28 14:30:41;;;;;;;4.68;3.63;;;;;;;;;;5084267;28;20035;-73
2021/12/28 14:33:10;;;;;;;5.15;3.28;;;;;;;;;;5073168;28;20417;-74
2021/12/28 14:35:39;;;;;;;5.28;2.95;;;;;;;;;;5071966;28;20072;-74
2021/12/28 14:38:11;;;;;;;6.75;2.75;;;;;;;;;;5078528;28;20129;-84
2021/12/28 14:41:05;;;;;;;5.38;2.58;;;;;;;;;;5101947;27;20031;-83
2021/12/28 14:43:34;;;;;;;7.88;2.88;;;;;;;;;;5080909;27;20051;-83
2021/12/28 14:46:24;;;;;;;6.25;2.40;;;;;;;;;;5075794;28;20083;-83
2021/12/28 14:55:14;;;;;;;6.75;3.65;;;;;;;;;;5093706;28;20111;-75
2021/12/28 15:01:23;;;;;;;4.55;2.45;;;;;;;;;;5082201;28;20098;-74
2021/12/28 15:04:16;;;;;;;8.20;3.25;;;;;;;;;;5065637;28;20090;-74
2021/12/28 15:07:10;;;;;;;5.53;2.83;;;;;;;;;;5083453;28;20136;-74
2021/12/28 15:09:57;;;;;;;4.50;2.72;;;;;;;;;;5029332;28;20072;-74
2021/12/28 15:13:00;;;;;;;7.18;2.92;;;;;;;;;;5046689;28;20055;-74
2021/12/28 15:15:56;;;;;;;6.85;3.10;;;;;;;;;;5028143;28;20407;-74
2021/12/28 15:18:33;;;;;;;7.82;3.50;;;;;;;;;;5027502;28;20094;-74
2021/12/28 15:21:08;;;;;;;10.77;4.63;;;;;;;;;;5044626;28;20047;-83
2021/12/28 15:23:36;;;;;;;8.02;4.00;;;;;;;;;;5026971;28;20504;-74
2021/12/28 15:26:02;;;;;;;12.15;4.35;;;;;;;;;;5038095;28;20507;-74
2021/12/28 15:28:28;;;;;;;13.02;4.05;;;;;;;;;;5038340;28;20043;-74
2021/12/28 15:30:54;;;;;;;9.02;4.10;;;;;;;;;;5009574;28;20448;-74
2021/12/28 15:33:21;;;;;;;17.65;5.00;;;;;;;;;;5055524;28;20078;-74
2021/12/28 15:35:47;;;;;;;14.00;5.15;;;;;;;;;;5065381;28;20055;-74
2021/12/28 15:38:16;;;;;;;12.55;4.18;;;;;;;;;;5021642;28;20052;-74
2021/12/28 15:40:46;;;;;;;9.07;4.32;;;;;;;;;;5066492;28;20062;-74
2021/12/28 15:43:13;;;;;;;10.15;4.65;;;;;;;;;;5117711;27;20502;-74